Time;durP1;ratioP1;P1;durP2;ratioP2;P2;SDS_P1;SDS_P2;PMS_P1;PMS_P2;Temp;Humidity;BMP_temperature;BMP_pressure;BME280_temperature;BME280_humidity;BME280_pressure;Samples;Min_cycle;Max_cycle;Signal;HPM_P1;HPM_P2
2022/10/26 00:02:16;;;;;;;10.40;5.13;;;;;;;16.51;52.00;95377.31;5030763;28;20728;-68
2022/10/26 00:04:42;;;;;;;12.43;5.22;;;;;;;16.49;52.17;95368.69;5028997;28;20190;-67
2022/10/26 00:07:07;;;;;;;10.00;5.13;;;;;;;16.50;52.22;95367.72;5025579;28;20182;-67
2022/10/26 00:09:33;;;;;;;8.38;4.95;;;;;;;16.46;52.48;95367.22;5025733;28;20197;-67
2022/10/26 00:11:58;;;;;;;7.50;4.50;;;;;;;16.49;52.28;95364.22;5023523;28;20198;-67
2022/10/26 00:14:25;;;;;;;9.45;4.88;;;;;;;16.48;52.05;95372.38;5024527;28;20234;-67
2022/10/26 00:16:50;;;;;;;9.82;4.75;;;;;;;16.59;51.87;95376.41;5030811;28;20672;-66
2022/10/26 00:19:16;;;;;;;12.27;5.32;;;;;;;16.43;52.25;95369.41;5024989;28;20186;-66
2022/10/26 00:21:41;;;;;;;8.98;4.57;;;;;;;16.36;52.56;95376.44;5024700;28;20274;-67
2022/10/26 00:24:06;;;;;;;12.80;5.03;;;;;;;16.30;52.10;95370.88;5027915;28;20187;-67
2022/10/26 00:26:32;;;;;;;10.43;4.72;;;;;;;16.35;52.18;95366.84;5025056;28;20669;-68
2022/10/26 00:28:58;;;;;;;14.20;5.28;;;;;;;16.31;52.53;95367.19;5022027;28;20186;-67
2022/10/26 00:31:23;;;;;;;8.93;4.88;;;;;;;16.30;52.18;95376.19;5020536;28;20533;-67
2022/10/26 00:33:54;;;;;;;6.68;4.80;;;;;;;16.30;52.56;95381.47;5023809;28;20260;-66
2022/10/26 00:36:20;;;;;;;11.13;4.45;;;;;;;16.41;51.99;95382.03;5024611;28;20252;-66
2022/10/26 00:38:50;;;;;;;7.63;4.10;;;;;;;16.32;52.43;95386.59;5028501;28;20183;-67
2022/10/26 00:41:27;;;;;;;8.70;4.95;;;;;;;16.30;52.19;95381.47;5023634;28;20186;-67
2022/10/26 00:43:53;;;;;;;7.55;4.30;;;;;;;16.34;51.94;95376.63;5030269;28;20186;-68
2022/10/26 00:46:34;;;;;;;10.75;4.68;;;;;;;16.34;51.94;95386.44;5027438;28;20185;-67
2022/10/26 00:49:14;;;;;;;9.60;4.55;;;;;;;16.22;52.47;95368.25;5022781;28;21051;-67
2022/10/26 00:51:58;;;;;;;7.97;4.88;;;;;;;16.22;52.79;95372.75;5021758;28;20195;-67
2022/10/26 00:54:24;;;;;;;10.98;5.93;;;;;;;16.18;52.74;95366.16;5028806;28;20650;-67
2022/10/26 00:57:05;;;;;;;6.85;4.30;;;;;;;16.21;52.55;95374.56;5014707;28;20174;-67
2022/10/26 00:59:31;;;;;;;6.68;4.60;;;;;;;16.28;52.50;95366.75;5030213;28;20210;-68
2022/10/26 01:01:57;;;;;;;7.80;4.57;;;;;;;16.23;52.44;95364.63;5028980;28;20182;-68
2022/10/26 01:04:23;;;;;;;7.25;4.20;;;;;;;16.18;52.53;95371.47;5026373;28;20274;-68
2022/10/26 01:06:49;;;;;;;12.73;4.25;;;;;;;16.16;52.29;95368.97;5033644;28;20832;-67
2022/10/26 01:09:17;;;;;;;10.73;4.97;;;;;;;16.12;52.67;95367.69;5022035;28;20273;-68
2022/10/26 01:11:42;;;;;;;10.27;4.53;;;;;;;16.14;52.79;95365.66;5019590;28;20196;-68
2022/10/26 01:14:10;;;;;;;10.98;4.75;;;;;;;16.04;53.39;95367.75;5025329;28;20215;-66
2022/10/26 01:16:50;;;;;;;8.68;4.78;;;;;;;16.05;53.13;95369.41;5024596;28;20565;-67
2022/10/26 01:19:22;;;;;;;9.80;5.13;;;;;;;16.07;53.13;95367.41;5030311;28;20191;-67
2022/10/26 01:22:02;;;;;;;8.52;4.50;;;;;;;16.02;53.38;95361.78;5022450;28;20206;-67
2022/10/26 01:24:46;;;;;;;6.75;5.18;;;;;;;16.02;53.48;95367.91;5026264;28;20311;-67
2022/10/26 01:27:25;;;;;;;11.20;4.70;;;;;;;15.97;53.72;95362.31;5023250;28;20779;-67
2022/10/26 01:30:15;;;;;;;8.98;4.55;;;;;;;15.90;53.94;95363.19;5020304;28;20673;-67
2022/10/26 01:32:58;;;;;;;7.85;5.00;;;;;;;15.88;54.05;95366.84;5018417;28;20194;-67
2022/10/26 01:35:24;;;;;;;9.30;5.20;;;;;;;15.93;54.00;95361.03;5021182;28;20230;-67
2022/10/26 01:38:32;;;;;;;9.15;5.20;;;;;;;15.94;54.29;95354.72;5026837;28;20202;-67
2022/10/26 01:41:25;;;;;;;8.40;4.47;;;;;;;15.87;54.25;95357.22;5019651;28;20213;-68
2022/10/26 01:43:58;;;;;;;7.32;4.53;;;;;;;15.76;54.77;95356.81;5027399;28;20190;-68
2022/10/26 01:46:26;;;;;;;10.65;4.50;;;;;;;15.78;54.42;95355.66;5018508;28;20278;-67
2022/10/26 01:48:57;;;;;;;6.85;4.45;;;;;;;15.73;54.68;95347.38;5022750;28;20182;-68
2022/10/26 01:51:25;;;;;;;8.55;4.57;;;;;;;15.70;54.42;95347.75;5021582;28;20265;-69
2022/10/26 01:53:50;;;;;;;8.40;4.35;;;;;;;15.75;54.55;95348.06;5034146;28;20237;-68
2022/10/26 01:56:29;;;;;;;9.40;4.47;;;;;;;15.70;54.26;95347.75;5028040;28;20764;-68
2022/10/26 01:59:30;;;;;;;6.38;4.60;;;;;;;15.74;54.17;95349.03;5022452;28;20185;-68
2022/10/26 02:02:18;;;;;;;5.70;4.55;;;;;;;15.60;54.67;95347.09;4967068;28;20195;-68
2022/10/26 02:04:52;;;;;;;9.82;5.03;;;;;;;15.64;54.84;95351.06;4967952;28;20295;-68
2022/10/26 02:07:33;;;;;;;7.47;4.10;;;;;;;15.62;54.73;95350.41;4965319;28;20192;-68
2022/10/26 02:10:07;;;;;;;7.15;4.47;;;;;;;15.58;54.60;95343.78;4969894;28;20264;-62
2022/10/26 02:12:53;;;;;;;6.75;4.22;;;;;;;15.56;54.89;95345.81;4958458;28;20220;-62
2022/10/26 02:15:31;;;;;;;5.43;3.90;;;;;;;15.51;55.04;95340.22;4967845;28;20212;-62
2022/10/26 02:18:27;;;;;;;6.63;4.30;;;;;;;15.60;54.72;95363.81;4970823;28;20199;-61
2022/10/26 02:21:02;;;;;;;9.05;4.65;;;;;;;15.54;54.77;95353.13;4930240;29;20201;-62
2022/10/26 02:23:30;;;;;;;10.30;4.45;;;;;;;15.48;55.06;95349.34;4903666;29;20564;-62
2022/10/26 02:25:59;;;;;;;8.95;4.28;;;;;;;15.57;54.91;95363.38;4907270;29;20261;-62
2022/10/26 02:28:30;;;;;;;9.40;5.05;;;;;;;15.42;55.14;95361.47;4902089;29;20193;-62
2022/10/26 02:30:58;;;;;;;10.77;4.68;;;;;;;15.37;55.52;95355.84;4924882;29;20229;-62
2022/10/26 02:33:28;;;;;;;6.38;4.50;;;;;;;15.44;55.48;95354.13;4929962;29;20189;-62
2022/10/26 02:35:57;;;;;;;9.50;4.80;;;;;;;15.43;55.57;95363.09;4929608;29;20229;-62
2022/10/26 02:38:24;;;;;;;8.30;4.90;;;;;;;15.31;55.88;95364.47;4930520;29;20200;-60
2022/10/26 02:40:51;;;;;;;8.10;4.55;;;;;;;15.41;56.08;95380.16;4963630;28;20254;-60
2022/10/26 02:43:20;;;;;;;6.80;5.43;;;;;;;15.39;55.53;95374.22;4970835;28;20185;-63
2022/10/26 02:45:58;;;;;;;10.43;5.97;;;;;;;15.27;56.44;95373.78;4952227;28;20196;-61
2022/10/26 02:48:24;;;;;;;14.68;6.95;;;;;;;15.17;57.02;95362.56;4967040;28;20187;-61
2022/10/26 02:51:07;;;;;;;11.52;7.28;;;;;;;15.13;56.86;95370.03;4954705;28;20197;-62
2022/10/26 02:53:47;;;;;;;14.32;7.32;;;;;;;15.08;57.01;95374.19;4952161;28;20203;-61
2022/10/26 02:56:20;;;;;;;10.88;7.60;;;;;;;14.88;58.01;95374.56;4945358;28;20228;-61
2022/10/26 02:58:51;;;;;;;13.98;8.32;;;;;;;14.79;57.99;95383.53;5016448;28;20258;-62
2022/10/26 03:01:17;;;;;;;14.55;8.45;;;;;;;14.65;58.69;95384.19;5029084;28;20194;-62
2022/10/26 03:03:43;;;;;;;15.48;7.65;;;;;;;14.69;58.49;95385.53;5028607;28;20182;-62
2022/10/26 03:06:08;;;;;;;12.25;7.55;;;;;;;14.45;59.30;95376.56;5025574;28;20183;-61
2022/10/26 03:08:33;;;;;;;15.05;8.68;;;;;;;14.43;59.20;95389.13;5021950;28;20186;-62
2022/10/26 03:10:59;;;;;;;13.68;8.20;;;;;;;14.41;59.23;95387.69;5026880;28;20728;-61
2022/10/26 03:13:24;;;;;;;14.05;8.30;;;;;;;14.42;59.30;95392.78;5023844;28;20209;-61
2022/10/26 03:15:50;;;;;;;13.13;7.85;;;;;;;14.22;59.98;95400.25;5018499;28;20258;-61
2022/10/26 03:18:15;;;;;;;13.32;8.55;;;;;;;14.29;59.94;95395.09;5017750;28;20273;-61
2022/10/26 03:20:43;;;;;;;12.45;8.95;;;;;;;14.15;60.30;95398.41;5027527;28;20560;-62
2022/10/26 03:23:09;;;;;;;16.42;8.98;;;;;;;14.15;60.21;95401.06;5025991;28;20190;-61
2022/10/26 03:25:34;;;;;;;14.30;9.07;;;;;;;14.13;60.37;95402.03;5028363;28;20184;-61
2022/10/26 03:28:01;;;;;;;13.48;9.30;;;;;;;14.08;60.44;95412.28;5019516;28;20194;-63
2022/10/26 03:30:27;;;;;;;14.02;9.00;;;;;;;14.03;60.76;95408.47;5022639;28;20226;-62
2022/10/26 03:32:53;;;;;;;13.75;9.25;;;;;;;13.97;60.98;95409.94;5021586;28;20190;-61
2022/10/26 03:35:19;;;;;;;18.65;9.68;;;;;;;13.95;60.95;95411.09;5019895;28;20223;-62
2022/10/26 03:37:45;;;;;;;17.33;9.27;;;;;;;14.05;61.05;95409.13;5022408;28;20269;-61
2022/10/26 03:40:10;;;;;;;16.30;8.43;;;;;;;14.05;61.42;95406.50;5027956;28;20210;-61
2022/10/26 03:42:36;;;;;;;10.07;7.22;;;;;;;14.09;61.83;95410.47;5020306;28;20257;-61
2022/10/26 03:45:03;;;;;;;10.38;6.90;;;;;;;14.12;62.00;95405.69;5029156;28;20186;-62
2022/10/26 03:47:28;;;;;;;9.63;6.70;;;;;;;14.22;61.92;95409.97;5028019;28;20189;-62
2022/10/26 03:49:54;;;;;;;9.35;6.13;;;;;;;14.28;61.88;95406.69;5028612;28;20719;-61
2022/10/26 03:52:19;;;;;;;10.95;6.60;;;;;;;14.34;62.14;95408.66;5032470;28;20217;-62
2022/10/26 03:54:44;;;;;;;10.75;7.05;;;;;;;14.26;61.92;95408.66;5023767;28;20281;-62
2022/10/26 03:57:10;;;;;;;9.98;6.50;;;;;;;14.38;62.09;95406.50;5030088;28;20194;-62
2022/10/26 03:59:36;;;;;;;10.02;6.78;;;;;;;14.42;61.74;95413.97;5025735;28;20214;-62
2022/10/26 04:02:01;;;;;;;9.00;6.53;;;;;;;14.43;61.92;95409.47;5029302;28;20190;-62
2022/10/26 04:04:27;;;;;;;9.23;7.00;;;;;;;14.40;62.09;95409.81;5027477;28;20179;-62
2022/10/26 04:06:52;;;;;;;10.18;6.82;;;;;;;14.47;61.76;95403.69;5034856;28;20573;-61
2022/10/26 04:09:18;;;;;;;8.60;7.03;;;;;;;14.39;62.22;95414.28;5020273;28;20666;-61
2022/10/26 04:11:43;;;;;;;8.77;6.35;;;;;;;14.41;62.10;95417.59;5026639;28;20282;-62
2022/10/26 04:14:08;;;;;;;10.93;6.90;;;;;;;14.37;62.21;95418.91;5024092;28;20190;-63
2022/10/26 04:16:34;;;;;;;11.95;7.05;;;;;;;14.41;62.02;95414.97;5023061;28;20297;-62
2022/10/26 04:18:59;;;;;;;12.07;7.00;;;;;;;14.42;62.10;95421.06;5021779;28;20201;-61
2022/10/26 04:21:25;;;;;;;8.95;6.75;;;;;;;14.39;62.19;95416.13;5031838;28;20201;-62
2022/10/26 04:23:50;;;;;;;8.10;7.13;;;;;;;14.41;62.30;95412.31;5023741;28;20190;-62
2022/10/26 04:26:16;;;;;;;11.10;6.80;;;;;;;14.41;62.21;95414.97;5027270;28;20232;-62
2022/10/26 04:28:41;;;;;;;8.95;7.10;;;;;;;14.40;62.09;95423.06;5024271;28;20225;-62
2022/10/26 04:31:06;;;;;;;9.30;6.55;;;;;;;14.34;62.20;95420.06;5028042;28;20637;-62
2022/10/26 04:33:32;;;;;;;15.85;6.93;;;;;;;14.23;62.62;95415.13;5028134;28;20186;-61
2022/10/26 04:36:01;;;;;;;9.35;7.05;;;;;;;14.25;62.66;95417.59;5027829;28;20318;-62
2022/10/26 04:38:26;;;;;;;11.05;6.05;;;;;;;14.22;62.44;95412.63;5023422;28;20198;-62
2022/10/26 04:40:52;;;;;;;8.07;6.40;;;;;;;14.20;62.08;95418.09;5018766;28;20269;-62
2022/10/26 04:43:17;;;;;;;7.72;6.63;;;;;;;14.25;62.17;95423.72;5026852;28;20622;-62
2022/10/26 04:45:42;;;;;;;7.30;6.50;;;;;;;14.12;62.38;95424.19;5022028;28;20233;-61
2022/10/26 04:48:12;;;;;;;11.05;6.68;;;;;;;14.26;62.39;95424.53;5026415;28;20249;-61
2022/10/26 04:50:39;;;;;;;8.10;6.57;;;;;;;14.24;62.42;95418.56;5021028;28;20274;-61
2022/10/26 04:53:06;;;;;;;9.57;6.32;;;;;;;14.23;62.52;95420.41;5024633;28;20222;-61
2022/10/26 04:55:32;;;;;;;8.40;6.13;;;;;;;14.24;62.54;95421.22;5022856;28;20295;-61
2022/10/26 04:57:58;;;;;;;9.25;6.13;;;;;;;14.19;62.89;95434.09;5031342;28;20217;-61
2022/10/26 05:00:23;;;;;;;7.85;5.90;;;;;;;14.27;62.86;95442.91;5023397;28;20259;-61
2022/10/26 05:02:48;;;;;;;7.43;6.03;;;;;;;14.34;62.41;95445.69;5015767;28;20195;-61
2022/10/26 05:05:14;;;;;;;10.20;6.53;;;;;;;14.32;62.46;95445.03;5027721;28;20328;-61
2022/10/26 05:07:39;;;;;;;10.75;6.60;;;;;;;14.34;62.28;95441.22;5013113;28;20210;-61
2022/10/26 05:10:06;;;;;;;8.73;6.30;;;;;;;14.41;62.23;95446.72;5025816;28;20206;-61
2022/10/26 05:12:32;;;;;;;11.02;6.30;;;;;;;14.42;62.07;95440.41;5018215;28;20559;-61
2022/10/26 05:14:58;;;;;;;11.13;6.55;;;;;;;14.47;62.18;95440.75;5025873;28;20217;-61
2022/10/26 05:17:26;;;;;;;10.60;5.78;;;;;;;14.44;62.12;95443.72;5017991;28;20214;-61
2022/10/26 05:19:54;;;;;;;10.88;6.85;;;;;;;14.60;61.92;95432.34;5026257;28;21285;-61
2022/10/26 05:22:23;;;;;;;11.27;5.90;;;;;;;14.59;62.07;95438.63;5016498;28;20276;-62
2022/10/26 05:24:49;;;;;;;10.55;6.38;;;;;;;14.55;61.93;95432.03;5024601;28;20182;-63
2022/10/26 05:27:14;;;;;;;8.40;6.45;;;;;;;14.68;61.55;95442.94;5019488;28;20191;-63
2022/10/26 05:29:40;;;;;;;11.30;6.75;;;;;;;14.49;62.41;95449.34;5022832;28;20232;-62
2022/10/26 05:32:33;;;;;;;10.35;6.82;;;;;;;14.56;62.07;95458.28;5026614;28;20281;-62
2022/10/26 05:34:58;;;;;;;7.93;6.60;;;;;;;14.56;62.15;95457.47;5024436;28;20593;-62
2022/10/26 05:37:27;;;;;;;12.07;7.20;;;;;;;14.66;61.77;95457.31;5018445;28;20186;-62
2022/10/26 05:39:52;;;;;;;9.65;7.07;;;;;;;14.73;62.06;95472.38;5025565;28;20567;-63
2022/10/26 05:42:19;;;;;;;10.38;6.65;;;;;;;14.72;61.62;95470.69;5022770;28;20190;-62
2022/10/26 05:44:45;;;;;;;14.48;7.60;;;;;;;14.68;61.74;95473.88;5018650;28;20189;-62
2022/10/26 05:47:10;;;;;;;18.63;10.73;;;;;;;14.65;61.03;95482.13;5021786;28;20307;-63
2022/10/26 05:49:36;;;;;;;19.90;11.52;;;;;;;14.66;59.88;95489.09;5015346;28;20190;-63
2022/10/26 05:52:01;;;;;;;16.63;11.43;;;;;;;14.35;60.13;95484.38;5022701;28;20900;-62
2022/10/26 05:54:27;;;;;;;15.88;10.70;;;;;;;14.39;59.94;95488.38;5021431;28;20203;-61
2022/10/26 05:56:52;;;;;;;20.98;12.25;;;;;;;14.33;59.86;95491.69;5027413;28;20224;-64
2022/10/26 05:59:18;;;;;;;17.40;11.40;;;;;;;14.24;60.33;95485.53;5002751;28;20565;-63
2022/10/26 06:02:05;;;;;;;19.00;11.90;;;;;;;14.31;60.14;95483.88;5023102;28;20187;-63
2022/10/26 06:04:47;;;;;;;18.17;11.00;;;;;;;14.13;61.38;95494.59;5023676;28;20217;-60
2022/10/26 06:07:15;;;;;;;17.77;11.57;;;;;;;14.36;61.16;95496.63;5025423;28;20190;-63
2022/10/26 06:09:41;;;;;;;17.83;10.85;;;;;;;14.49;60.93;95504.91;5019145;28;20603;-63
2022/10/26 06:12:08;;;;;;;24.48;11.27;;;;;;;14.50;60.70;95508.38;5015384;28;20199;-62
2022/10/26 06:14:34;;;;;;;17.38;11.98;;;;;;;14.44;60.64;95504.59;5023916;28;20189;-63
2022/10/26 06:17:30;;;;;;;19.45;10.55;;;;;;;14.47;60.85;95504.25;5021852;28;20182;-63
2022/10/26 06:20:36;;;;;;;18.25;11.60;;;;;;;14.57;60.47;95509.44;5002468;28;20193;-63
2022/10/26 06:23:32;;;;;;;21.02;12.13;;;;;;;14.77;59.87;95510.75;5017712;28;20201;-67
2022/10/26 06:26:33;;;;;;;22.10;11.25;;;;;;;14.79;59.86;95510.59;5025169;28;20201;-67
2022/10/26 06:29:20;;;;;;;14.95;10.15;;;;;;;14.78;60.47;95511.56;5013720;28;20203;-68
2022/10/26 06:31:47;;;;;;;14.57;8.60;;;;;;;14.91;60.38;95514.53;5025342;28;20273;-69
2022/10/26 06:34:26;;;;;;;13.68;7.82;;;;;;;15.12;60.09;95510.56;5020087;28;20187;-68
2022/10/26 06:36:52;;;;;;;12.05;7.88;;;;;;;15.18;59.94;95512.53;5022827;28;20625;-68
2022/10/26 06:39:19;;;;;;;11.57;7.47;;;;;;;15.33;59.40;95513.50;5023229;28;20298;-68
2022/10/26 06:41:44;;;;;;;10.52;6.30;;;;;;;15.42;59.04;95519.59;5024276;28;20186;-69
2022/10/26 06:44:19;;;;;;;10.27;6.68;;;;;;;15.46;59.23;95526.22;5026192;28;20195;-68
2022/10/26 06:47:17;;;;;;;9.52;6.22;;;;;;;15.49;59.01;95520.59;5020407;28;20188;-68
2022/10/26 06:50:02;;;;;;;8.63;6.55;;;;;;;15.58;58.42;95518.72;5025423;28;20185;-67
2022/10/26 06:52:39;;;;;;;14.02;6.55;;;;;;;15.66;58.87;95519.56;5028341;28;20182;-67
2022/10/26 06:55:05;;;;;;;10.27;6.88;;;;;;;15.78;58.05;95530.63;5018645;28;20293;-67
2022/10/26 06:57:36;;;;;;;7.82;5.95;;;;;;;15.73;58.27;95526.84;5016147;28;20278;-68
2022/10/26 07:00:22;;;;;;;10.98;5.85;;;;;;;15.73;58.52;95532.16;5024361;28;20680;-68
2022/10/26 07:02:48;;;;;;;9.32;6.38;;;;;;;15.90;57.83;95532.91;5026776;28;20239;-69
2022/10/26 07:05:14;;;;;;;6.32;5.65;;;;;;;15.88;57.66;95531.28;5023290;28;20256;-69
2022/10/26 07:07:44;;;;;;;8.68;6.45;;;;;;;16.01;57.48;95533.38;5020864;28;20186;-69
2022/10/26 07:10:11;;;;;;;8.60;6.03;;;;;;;16.00;57.67;95544.16;5030390;28;20185;-68
2022/10/26 07:12:37;;;;;;;8.30;5.60;;;;;;;16.12;57.13;95536.63;5027198;28;20210;-68
2022/10/26 07:15:04;;;;;;;6.43;5.82;;;;;;;16.06;57.04;95538.16;5020136;28;20202;-68
2022/10/26 07:17:30;;;;;;;8.73;6.00;;;;;;;16.06;57.18;95531.03;5019336;28;20183;-68
2022/10/26 07:19:55;;;;;;;8.05;5.82;;;;;;;16.07;57.29;95535.34;5015476;28;20193;-68
2022/10/26 07:22:21;;;;;;;8.00;5.70;;;;;;;16.13;56.78;95533.00;5025871;28;20189;-68
2022/10/26 07:24:49;;;;;;;7.80;5.63;;;;;;;16.17;56.52;95523.66;5025105;28;20677;-68
2022/10/26 07:27:15;;;;;;;7.25;6.07;;;;;;;16.25;56.66;95529.78;5022518;28;20198;-68
2022/10/26 07:29:41;;;;;;;9.23;6.28;;;;;;;16.39;56.08;95538.81;5019927;28;20187;-68
2022/10/26 07:32:07;;;;;;;9.70;6.25;;;;;;;16.35;55.80;95534.03;5030077;28;20183;-68
2022/10/26 07:34:32;;;;;;;9.25;5.95;;;;;;;16.43;55.70;95531.31;5025944;28;20229;-68
2022/10/26 07:36:59;;;;;;;11.45;6.43;;;;;;;16.53;55.39;95523.97;5030569;28;20201;-68
2022/10/26 07:39:25;;;;;;;7.10;5.68;;;;;;;16.55;55.02;95524.63;5027992;28;20221;-68
2022/10/26 07:41:50;;;;;;;8.65;5.32;;;;;;;16.48;55.29;95523.66;5024984;28;20214;-67
2022/10/26 07:44:16;;;;;;;5.93;5.32;;;;;;;16.54;55.00;95520.28;5033195;28;20244;-69
2022/10/26 07:46:41;;;;;;;10.02;5.65;;;;;;;16.43;55.24;95524.19;5012768;28;20255;-70
2022/10/26 07:49:07;;;;;;;9.18;5.43;;;;;;;16.59;54.93;95517.13;5029790;28;20232;-70
2022/10/26 07:51:32;;;;;;;6.07;5.47;;;;;;;16.71;54.56;95518.38;5025924;28;20183;-68
2022/10/26 07:53:58;;;;;;;7.72;5.88;;;;;;;16.60;54.97;95519.63;5022440;28;20193;-69
2022/10/26 07:56:23;;;;;;;9.25;5.95;;;;;;;16.69;54.63;95521.19;5023360;28;20298;-69
2022/10/26 07:58:52;;;;;;;9.23;6.20;;;;;;;16.86;54.33;95518.44;5022455;28;20186;-69
2022/10/26 08:01:17;;;;;;;10.70;5.65;;;;;;;16.88;53.95;95521.75;5021126;28;20185;-68
2022/10/26 08:03:43;;;;;;;9.85;5.22;;;;;;;16.88;53.54;95519.91;5022287;28;20195;-69
2022/10/26 08:06:09;;;;;;;9.18;5.47;;;;;;;16.98;53.55;95519.69;5022222;28;20181;-68
2022/10/26 08:08:34;;;;;;;10.30;5.78;;;;;;;16.96;53.75;95521.69;5032266;28;20191;-68
2022/10/26 08:11:00;;;;;;;8.18;4.35;;;;;;;17.01;53.48;95521.97;5030451;28;20209;-67
2022/10/26 08:13:26;;;;;;;7.07;5.47;;;;;;;17.09;52.67;95523.75;5031469;28;20238;-69
2022/10/26 08:15:59;;;;;;;6.80;4.45;;;;;;;17.20;52.11;95526.78;5033080;28;20392;-67
2022/10/26 08:18:24;;;;;;;5.70;4.75;;;;;;;17.17;52.38;95515.69;5030440;28;20658;-67
2022/10/26 08:20:50;;;;;;;6.13;4.40;;;;;;;17.24;52.05;95518.44;5023210;28;20187;-67
2022/10/26 08:23:15;;;;;;;9.30;5.10;;;;;;;17.25;51.92;95520.94;5031644;28;20285;-67
2022/10/26 08:25:40;;;;;;;9.05;4.90;;;;;;;17.12;52.68;95516.22;5031919;28;20244;-68
2022/10/26 08:28:06;;;;;;;7.05;5.05;;;;;;;17.22;52.32;95515.16;5026875;28;20275;-69
2022/10/26 08:30:32;;;;;;;8.93;5.28;;;;;;;17.20;52.72;95512.66;5023441;28;20199;-68
2022/10/26 08:33:02;;;;;;;7.50;4.72;;;;;;;17.29;52.29;95518.72;5017901;28;20210;-69
2022/10/26 08:35:28;;;;;;;8.75;4.97;;;;;;;17.39;51.85;95513.97;5021104;28;20234;-68
2022/10/26 08:37:54;;;;;;;38.17;6.93;;;;;;;17.51;51.17;95511.69;5029819;28;20205;-70
2022/10/26 08:40:26;;;;;;;8.32;4.50;;;;;;;17.51;51.25;95509.88;5031418;28;20193;-69
2022/10/26 08:43:10;;;;;;;6.80;4.70;;;;;;;17.53;52.15;95513.16;5028451;28;20585;-71
2022/10/26 08:45:40;;;;;;;6.53;4.65;;;;;;;17.59;51.66;95509.78;5025836;28;20191;-69
2022/10/26 08:48:13;;;;;;;7.00;4.63;;;;;;;17.60;52.50;95511.44;5029943;28;20186;-68
2022/10/26 08:50:48;;;;;;;6.15;4.80;;;;;;;17.76;52.29;95513.06;5031490;28;20563;-69
2022/10/26 08:53:39;;;;;;;5.50;4.53;;;;;;;17.85;51.68;95519.16;5030983;28;20185;-71
2022/10/26 08:56:22;;;;;;;9.85;5.20;;;;;;;17.81;51.70;95518.72;5031322;28;20253;-70
2022/10/26 08:58:57;;;;;;;7.45;4.40;;;;;;;18.09;51.86;95518.03;5028421;28;20276;-71
2022/10/26 09:01:22;;;;;;;11.75;4.65;;;;;;;18.19;50.66;95520.41;5023982;28;20695;-70
2022/10/26 09:03:48;;;;;;;16.75;5.53;;;;;;;18.15;51.06;95519.97;5029351;28;20270;-69
2022/10/26 09:06:19;;;;;;;15.07;5.47;;;;;;;18.22;50.68;95520.03;5028691;28;20225;-71
2022/10/26 09:09:03;;;;;;;8.40;4.38;;;;;;;18.22;50.84;95515.53;5044033;28;20194;-71
2022/10/26 09:11:40;;;;;;;7.28;4.35;;;;;;;18.32;48.74;95517.91;5023454;28;20317;-72
2022/10/26 09:14:12;;;;;;;7.65;4.07;;;;;;;18.35;49.03;95517.53;5027600;28;20197;-71
2022/10/26 09:16:58;;;;;;;8.27;3.83;;;;;;;18.36;48.92;95516.50;5029071;28;20215;-70
2022/10/26 09:19:38;;;;;;;7.93;4.45;;;;;;;18.42;49.20;95515.78;5022742;28;20673;-69
2022/10/26 09:22:15;;;;;;;8.85;4.20;;;;;;;18.65;47.74;95514.75;5027037;28;20178;-71
2022/10/26 09:24:51;;;;;;;9.70;4.32;;;;;;;18.83;48.31;95512.50;5026820;28;20181;-70
2022/10/26 09:27:24;;;;;;;8.52;3.88;;;;;;;18.92;47.46;95510.53;5020385;28;20248;-69
2022/10/26 09:29:51;;;;;;;8.30;4.50;;;;;;;18.87;47.76;95507.63;5026151;28;20267;-68
2022/10/26 09:32:19;;;;;;;6.10;3.70;;;;;;;18.96;47.16;95506.50;5026604;28;20757;-68
2022/10/26 09:34:56;;;;;;;6.85;3.75;;;;;;;18.93;46.88;95510.34;5010972;28;20662;-69
2022/10/26 09:37:47;;;;;;;4.90;3.60;;;;;;;19.05;46.65;95509.84;5023635;28;20193;-68
2022/10/26 09:40:13;;;;;;;6.47;3.45;;;;;;;19.09;46.59;95511.13;5026236;28;20209;-68
2022/10/26 09:42:54;;;;;;;7.00;3.53;;;;;;;19.21;45.95;95516.72;5029895;28;20190;-68
2022/10/26 09:45:31;;;;;;;8.02;3.90;;;;;;;19.25;45.88;95508.16;5026355;28;20261;-72
2022/10/26 09:48:26;;;;;;;8.65;3.50;;;;;;;19.41;46.10;95511.56;5028085;28;20178;-70
2022/10/26 09:50:51;;;;;;;4.28;3.05;;;;;;;19.48;44.96;95499.06;4935098;29;20197;-69
2022/10/26 09:53:17;;;;;;;5.95;3.65;;;;;;;19.47;45.07;95497.44;4951114;29;20193;-70
2022/10/26 09:55:45;;;;;;;5.70;2.92;;;;;;;19.55;43.77;95503.44;4933340;29;20323;-70
2022/10/26 09:58:22;;;;;;;5.63;2.38;;;;;;;19.59;43.19;95493.19;4932510;29;20220;-70
2022/10/26 10:00:48;;;;;;;4.93;2.47;;;;;;;19.78;42.01;95500.53;4932922;29;20189;-68
2022/10/26 10:03:18;;;;;;;2.65;2.42;;;;;;;19.89;41.47;95493.81;4950601;29;20267;-68
2022/10/26 10:05:44;;;;;;;3.35;2.42;;;;;;;19.83;41.87;95486.59;4934175;29;20804;-68
2022/10/26 10:08:22;;;;;;;3.72;2.53;;;;;;;19.93;42.06;95487.06;4935021;29;20208;-69
2022/10/26 10:11:05;;;;;;;5.40;2.60;;;;;;;20.00;43.05;95487.91;4934503;29;20199;-68
2022/10/26 10:13:34;;;;;;;4.10;2.33;;;;;;;20.13;41.32;95487.16;4932796;29;20196;-67
2022/10/26 10:16:06;;;;;;;4.68;2.90;;;;;;;20.22;41.35;95482.44;4933572;29;20208;-66
2022/10/26 10:18:34;;;;;;;5.30;2.45;;;;;;;20.17;41.30;95472.34;4951011;29;20192;-69
2022/10/26 10:21:00;;;;;;;3.80;2.33;;;;;;;20.30;41.98;95482.28;4916460;29;20204;-68
2022/10/26 10:23:53;;;;;;;3.22;2.38;;;;;;;20.28;40.38;95479.78;4934346;29;20189;-69
2022/10/26 10:26:18;;;;;;;4.43;2.50;;;;;;;20.35;39.66;95462.97;4933223;29;20190;-67
2022/10/26 10:28:59;;;;;;;4.28;2.53;;;;;;;20.53;40.13;95465.06;5003599;28;20233;-68
2022/10/26 10:31:32;;;;;;;4.45;2.60;;;;;;;20.63;40.24;95469.00;5026520;28;20186;-67
2022/10/26 10:33:58;;;;;;;4.65;2.30;;;;;;;20.82;39.59;95462.06;5022761;28;20187;-67
2022/10/26 10:36:29;;;;;;;6.10;2.50;;;;;;;20.61;39.42;95457.72;5022030;28;20235;-67
2022/10/26 10:38:55;;;;;;;4.60;2.60;;;;;;;20.72;39.22;95458.16;5025943;28;20329;-67
2022/10/26 10:41:27;;;;;;;8.63;2.40;;;;;;;20.90;39.44;95458.34;5016044;28;20186;-69
2022/10/26 10:44:07;;;;;;;9.13;3.10;;;;;;;21.06;39.75;95463.31;5022756;28;20671;-69
2022/10/26 10:46:34;;;;;;;8.00;3.15;;;;;;;21.08;39.09;95453.22;5021379;28;20178;-68
2022/10/26 10:49:05;;;;;;;4.45;2.72;;;;;;;21.19;39.40;95454.44;5028845;28;20190;-70
2022/10/26 10:51:40;;;;;;;7.07;2.50;;;;;;;21.24;38.29;95457.31;5018787;28;20599;-70
2022/10/26 10:54:21;;;;;;;3.70;2.30;;;;;;;21.20;38.18;95445.41;5007393;28;20239;-70
2022/10/26 10:56:52;;;;;;;4.63;2.55;;;;;;;21.28;37.99;95445.19;5027962;28;20217;-70
2022/10/26 10:59:52;;;;;;;4.00;3.10;;;;;;;21.43;38.14;95444.97;5022163;28;20183;-69
2022/10/26 11:02:38;;;;;;;4.40;2.58;;;;;;;21.78;39.11;95436.63;5009982;28;20204;-69
2022/10/26 11:05:34;;;;;;;7.13;2.70;;;;;;;21.70;37.14;95428.84;5026790;28;20210;-70
2022/10/26 11:08:08;;;;;;;5.85;5.25;;;;;;;22.07;37.84;95432.63;5022609;28;20227;-70
2022/10/26 11:11:09;;;;;;;8.82;3.85;;;;;;;22.19;37.13;95422.09;5023328;28;20186;-73
2022/10/26 11:13:49;;;;;;;4.88;2.53;;;;;;;22.27;36.59;95423.72;5029649;28;20261;-73
2022/10/26 11:16:28;;;;;;;4.15;2.55;;;;;;;22.37;35.92;95422.19;5025485;28;20224;-74
2022/10/26 11:19:04;;;;;;;6.07;2.60;;;;;;;22.48;35.84;95431.41;5023606;28;20190;-73
2022/10/26 11:21:33;;;;;;;5.88;2.92;;;;;;;22.48;36.34;95419.84;5021958;28;20281;-74
2022/10/26 11:24:19;;;;;;;3.72;2.60;;;;;;;22.60;37.08;95434.22;5021056;28;21031;-74
2022/10/26 11:26:52;;;;;;;4.70;2.60;;;;;;;22.73;36.70;95434.13;5026398;28;20189;-73
2022/10/26 11:29:42;;;;;;;2.70;2.40;;;;;;;22.85;36.11;95432.41;5026917;28;20194;-74
2022/10/26 11:32:10;;;;;;;5.57;3.20;;;;;;;23.13;35.40;95427.66;5025582;28;20211;-75
2022/10/26 11:34:54;;;;;;;4.43;2.40;;;;;;;23.36;35.38;95422.47;5028274;28;20186;-74
2022/10/26 11:37:40;;;;;;;3.45;2.20;;;;;;;24.36;32.76;95416.78;5031214;28;20205;-78
2022/10/26 11:40:24;;;;;;;3.55;2.05;;;;;;;33.61;19.60;95425.38;5024831;28;20623;-76
2022/10/26 11:43:15;;;;;;;2.85;2.00;;;;;;;38.80;14.01;95421.19;5025427;28;20194;-76
2022/10/26 11:45:45;;;;;;;4.47;2.42;;;;;;;41.22;11.77;95428.94;5028216;28;20186;-77
2022/10/26 11:48:23;;;;;;;3.47;2.25;;;;;;;43.85;9.69;95427.88;5027180;28;20193;-77
2022/10/26 11:50:58;;;;;;;4.75;2.10;;;;;;;43.77;9.42;95415.81;5022384;28;20240;-78